Augusta, Michigan
Current Conditions -  °F | °C
As of 4:53 PM on Friday 24 Oct 2014 (Local Time) from KBTL Reporting Station
Few Clouds Few Clouds  
Wind Chill: 63°   Ceiling: Unl
Heat Index: 63°   Visibility: 10mi
Dew Point: 46°   Wind: 12mph
Humidity: 54%   Direction: 260°W
Pressure: 29.98"   Gusts: NA
Location:  42.34°N, 85.35°W
Report Text: KBTL 242053Z 26010KT 10SM FEW040 17/08 A2998 RMK AO2 SLP153 T01720078 56014
Loading
Personal Weather Stations






























Interactive Weather Map
Tropical Storm Tracking
New forecast layout! Learn more

10-Day Weather Forecast

Advertisements
Track Severe Weather on mobile